createdAt,value
2018-07-26T00:03:16.922Z,22.70
2018-07-26T00:08:20.440Z,22.70
2018-07-26T00:13:24.158Z,22.50
2018-07-26T00:18:27.772Z,22.40
2018-07-26T00:23:31.298Z,22.40
2018-07-26T00:28:34.971Z,22.40
2018-07-26T00:33:39.457Z,22.30
2018-07-26T00:38:42.942Z,22.30
2018-07-26T00:43:48.347Z,22.10
2018-07-26T00:49:11.936Z,22.10
2018-07-26T00:54:21.169Z,22.00
2018-07-26T00:59:24.646Z,21.90
2018-07-26T01:04:28.183Z,21.70
2018-07-26T01:09:31.836Z,21.70
2018-07-26T01:14:35.405Z,21.60
2018-07-26T01:19:38.973Z,21.70
2018-07-26T01:24:42.438Z,21.60
2018-07-26T01:29:47.892Z,21.50
2018-07-26T01:34:51.346Z,21.40
2018-07-26T01:39:54.927Z,21.50
2018-07-26T01:45:07.997Z,21.40
2018-07-26T01:50:11.560Z,21.40
2018-07-26T01:55:15.136Z,21.30
2018-07-26T02:00:29.013Z,21.30
2018-07-26T02:05:36.137Z,21.30
2018-07-26T02:10:41.641Z,21.20
2018-07-26T02:15:47.252Z,21.20
2018-07-26T02:20:51.180Z,21.20
2018-07-26T02:25:55.008Z,21.20
2018-07-26T02:30:58.583Z,21.10
2018-07-26T02:36:01.986Z,20.90
2018-07-26T02:41:07.996Z,20.80
2018-07-26T02:46:16.112Z,20.80
2018-07-26T02:51:19.549Z,20.80
2018-07-26T03:01:26.363Z,20.60
2018-07-26T03:06:29.878Z,20.60
2018-07-26T03:11:33.328Z,20.60
2018-07-26T03:16:36.904Z,20.50
2018-07-26T03:21:41.375Z,20.60
2018-07-26T03:26:44.686Z,20.60
2018-07-26T03:31:48.100Z,20.60
2018-07-26T03:36:51.926Z,20.50
2018-07-26T03:41:57.675Z,20.40
2018-07-26T03:47:01.224Z,20.40
2018-07-26T03:52:05.282Z,20.30
2018-07-26T03:57:11.863Z,20.10
2018-07-26T04:02:15.440Z,20.00
2018-07-26T04:07:19.059Z,20.10
2018-07-26T04:12:22.551Z,20.10
2018-07-26T04:17:26.165Z,20.10
2018-07-26T04:22:29.826Z,20.00
2018-07-26T04:27:34.326Z,20.20
2018-07-26T04:32:37.847Z,20.20
2018-07-26T04:38:05.109Z,20.20
2018-07-26T04:43:22.878Z,20.10
2018-07-26T04:48:30.645Z,20.10
2018-07-26T04:53:37.500Z,20.30
2018-07-26T04:58:42.110Z,20.50
2018-07-26T05:03:45.609Z,20.80
2018-07-26T05:08:49.594Z,21.00
2018-07-26T05:13:53.580Z,21.20
2018-07-26T05:18:57.999Z,21.30
2018-07-26T05:24:01.776Z,21.20
2018-07-26T05:29:06.575Z,21.50
2018-07-26T05:34:11.774Z,21.70
2018-07-26T05:39:17.291Z,21.90
2018-07-26T05:44:29.596Z,22.20
2018-07-26T05:49:33.123Z,22.40
2018-07-26T05:54:36.708Z,22.80
2018-07-26T05:59:40.291Z,23.20
2018-07-26T06:04:43.786Z,23.50
2018-07-26T06:09:47.524Z,23.90
2018-07-26T06:14:51.148Z,24.20
2018-07-26T06:19:54.531Z,24.50
2018-07-26T06:24:57.885Z,24.70
2018-07-26T06:30:03.621Z,24.90
2018-07-26T06:35:07.921Z,25.20
2018-07-26T06:40:11.316Z,25.50
2018-07-26T06:45:14.809Z,25.80
2018-07-26T06:50:18.335Z,26.10
2018-07-26T06:55:21.859Z,26.20
2018-07-26T07:00:25.343Z,26.50
2018-07-26T07:05:29.480Z,26.80
2018-07-26T07:10:32.982Z,26.90
2018-07-26T07:21:04.537Z,27.70
2018-07-26T07:26:07.945Z,28.10
2018-07-26T07:31:11.508Z,28.60
2018-07-26T07:36:15.030Z,29.00
2018-07-26T07:41:18.426Z,29.40
2018-07-26T07:46:23.931Z,29.70
2018-07-26T07:51:29.340Z,30.00
2018-07-26T08:02:16.787Z,30.50
2018-07-26T08:07:22.256Z,31.00
2018-07-26T08:12:26.413Z,31.40
2018-07-26T08:17:31.933Z,31.80
2018-07-26T08:22:35.515Z,32.10
2018-07-26T08:27:39.372Z,32.40
2018-07-26T08:32:42.894Z,32.70
2018-07-26T08:37:48.494Z,32.80
2018-07-26T08:47:55.984Z,33.40
2018-07-26T08:53:00.244Z,33.40
2018-07-26T08:58:09.173Z,33.80
2018-07-26T09:14:38.059Z,34.60
2018-07-26T09:20:05.480Z,34.90
2018-07-26T10:04:33.604Z,36.50
2018-07-26T10:09:37.207Z,36.40
2018-07-26T10:14:40.806Z,36.50
2018-07-26T10:19:44.309Z,36.80
2018-07-26T10:24:47.744Z,37.00
2018-07-26T10:29:51.156Z,37.40
2018-07-26T10:34:54.588Z,37.00
2018-07-26T10:39:59.165Z,37.00
2018-07-26T10:45:02.630Z,37.10
2018-07-26T10:50:09.272Z,37.50
2018-07-26T10:55:12.774Z,37.80
2018-07-26T11:00:16.353Z,38.10
2018-07-26T11:05:33.611Z,38.50
2018-07-26T11:12:08.412Z,38.20
2018-07-26T11:17:12.369Z,38.10
2018-07-26T11:22:15.722Z,38.10
2018-07-26T11:27:19.149Z,38.60
2018-07-26T11:32:22.710Z,38.50
2018-07-26T11:37:26.163Z,38.40
2018-07-26T11:42:36.958Z,38.70
2018-07-26T11:53:13.819Z,38.80
2018-07-26T11:58:34.103Z,39.00
2018-07-26T12:03:44.350Z,39.30
2018-07-26T12:08:51.665Z,39.30
2018-07-26T12:13:55.160Z,39.50
2018-07-26T12:18:58.721Z,39.80
2018-07-26T12:24:02.149Z,40.00
2018-07-26T12:29:05.549Z,40.00
2018-07-26T12:39:56.604Z,39.90
2018-07-26T12:45:00.119Z,39.80
2018-07-26T12:50:04.705Z,39.80
2018-07-26T12:55:08.356Z,39.40
2018-07-26T13:00:11.776Z,39.50
2018-07-26T13:05:15.342Z,39.70
2018-07-26T13:10:19.091Z,39.60
2018-07-26T13:15:22.859Z,39.70
2018-07-26T13:20:26.668Z,40.30
2018-07-26T13:25:30.453Z,40.40
2018-07-26T13:30:34.593Z,40.20
2018-07-26T13:36:42.636Z,40.50
2018-07-26T13:41:46.309Z,40.80
2018-07-26T13:51:53.875Z,39.50
2018-07-26T14:02:25.552Z,39.30
2018-07-26T14:07:32.531Z,39.20
2018-07-26T14:12:36.708Z,38.70
2018-07-26T14:17:40.263Z,38.60
2018-07-26T14:22:43.725Z,38.20
2018-07-26T14:27:47.262Z,38.20
2018-07-26T14:32:51.903Z,38.60
2018-07-26T14:37:55.452Z,38.80
2018-07-26T14:43:03.548Z,38.90
2018-07-26T14:48:07.110Z,39.40
2018-07-26T14:53:22.481Z,39.50
2018-07-26T14:58:25.985Z,39.20
2018-07-26T15:03:29.513Z,39.00
2018-07-26T15:08:33.071Z,38.80
2018-07-26T15:13:42.295Z,38.80
2018-07-26T15:18:55.825Z,38.80
2018-07-26T15:23:59.924Z,39.00
2018-07-26T15:29:05.599Z,39.60
2018-07-26T15:34:08.896Z,39.60
2018-07-26T15:39:12.302Z,38.80
2018-07-26T15:44:16.165Z,37.80
2018-07-26T15:49:19.642Z,37.20
2018-07-26T15:54:25.208Z,36.70
2018-07-26T15:59:28.682Z,36.30
2018-07-26T16:04:32.236Z,35.80
2018-07-26T16:09:35.655Z,36.10
2018-07-26T16:14:39.258Z,36.50
2018-07-26T16:19:43.823Z,36.90
2018-07-26T16:24:48.261Z,37.10
2018-07-26T16:29:54.973Z,37.30
2018-07-26T16:45:04.621Z,38.20
2018-07-26T16:50:07.986Z,37.90
2018-07-26T16:55:15.101Z,38.10
2018-07-26T17:00:18.614Z,38.10
2018-07-26T17:05:22.123Z,38.40
2018-07-26T17:10:25.470Z,38.80
2018-07-26T17:15:28.873Z,38.90
2018-07-26T17:20:32.276Z,39.20
2018-07-26T17:25:37.701Z,39.30
2018-07-26T17:30:41.150Z,39.80
2018-07-26T17:35:44.739Z,40.10
2018-07-26T17:40:49.326Z,39.90
2018-07-26T17:45:52.749Z,39.90
2018-07-26T17:51:01.840Z,39.60
2018-07-26T17:56:06.353Z,38.30
2018-07-26T18:01:29.738Z,37.40
2018-07-26T18:06:36.021Z,36.80
2018-07-26T18:11:53.464Z,36.20
2018-07-26T18:17:05.991Z,35.60
2018-07-26T18:22:09.507Z,35.20
2018-07-26T18:27:13.275Z,34.80
2018-07-26T18:32:24.692Z,34.30
2018-07-26T18:37:42.981Z,34.00
2018-07-26T18:43:03.728Z,33.70
2018-07-26T18:48:07.237Z,33.50
2018-07-26T18:53:10.694Z,33.10
2018-07-26T18:58:14.309Z,32.70
2018-07-26T19:03:17.747Z,32.30
2018-07-26T19:08:21.848Z,31.80
2018-07-26T19:13:25.238Z,31.70
2018-07-26T19:18:29.534Z,31.50
2018-07-26T19:23:34.988Z,31.20
2018-07-26T19:34:24.295Z,30.90
2018-07-26T19:39:27.690Z,30.60
2018-07-26T19:44:37.293Z,30.40
2018-07-26T19:49:54.929Z,30.30
2018-07-26T19:55:10.399Z,30.10
2018-07-26T20:05:57.776Z,29.60
2018-07-26T20:39:14.188Z,27.90
2018-07-26T20:44:17.621Z,27.70
2018-07-26T20:49:21.015Z,27.40
2018-07-26T20:54:25.568Z,27.10
2018-07-26T20:59:29.441Z,26.90
2018-07-26T21:04:32.914Z,26.90
2018-07-26T21:09:36.294Z,26.80
2018-07-26T21:14:44.501Z,26.60
2018-07-26T21:19:47.901Z,26.40
2018-07-26T21:24:51.606Z,26.10
2018-07-26T21:29:54.981Z,25.90
2018-07-26T21:34:58.410Z,25.70
2018-07-26T21:40:01.771Z,25.50
2018-07-26T21:45:06.779Z,25.30
2018-07-26T21:50:10.168Z,25.10
2018-07-26T21:55:13.542Z,24.90
2018-07-26T22:00:19.445Z,24.70
2018-07-26T22:05:23.049Z,24.60
2018-07-26T22:10:26.638Z,24.50
2018-07-26T22:26:14.892Z,24.10
2018-07-26T22:31:18.408Z,23.90
2018-07-26T22:36:21.939Z,23.80
2018-07-26T22:41:25.486Z,23.70
2018-07-26T22:46:28.910Z,23.60
2018-07-26T22:51:32.714Z,23.50
2018-07-26T22:56:36.099Z,23.40
2018-07-26T23:01:39.568Z,23.30
2018-07-26T23:06:43.059Z,23.30
2018-07-26T23:17:15.196Z,22.90
2018-07-26T23:22:18.665Z,22.80
2018-07-26T23:27:23.082Z,22.70
2018-07-26T23:32:26.483Z,22.70
2018-07-26T23:37:32.111Z,22.50
2018-07-26T23:42:35.744Z,22.50
2018-07-26T23:47:41.374Z,22.30
2018-07-26T23:52:44.788Z,22.30
2018-07-26T23:57:48.400Z,22.20
